createdAt,value
2023-06-08T00:01:30.734Z,18.1
2023-06-08T00:11:30.676Z,17.9
2023-06-08T00:21:30.794Z,18
2023-06-08T00:31:30.719Z,17.9
2023-06-08T00:41:30.618Z,17.9
2023-06-08T00:51:30.621Z,17.7
2023-06-08T01:01:30.671Z,17.6
2023-06-08T01:11:30.560Z,17.5
2023-06-08T01:21:30.552Z,17.4
2023-06-08T01:31:30.532Z,17.4
2023-06-08T01:41:30.522Z,17.4
2023-06-08T01:51:30.501Z,17.3
2023-06-08T02:01:30.540Z,17.4
2023-06-08T02:11:30.454Z,17.3
2023-06-08T02:21:30.435Z,17.2
2023-06-08T02:31:30.397Z,17
2023-06-08T02:41:30.400Z,16.8
2023-06-08T02:51:30.408Z,16.6
2023-06-08T03:01:30.372Z,16.6
2023-06-08T03:11:30.322Z,16.5
2023-06-08T03:21:30.294Z,16.4
2023-06-08T03:31:30.415Z,16.2
2023-06-08T03:41:30.277Z,16.2
2023-06-08T03:51:30.345Z,15.9
2023-06-08T04:01:30.189Z,15.9
2023-06-08T04:11:30.206Z,15.7
2023-06-08T04:21:30.297Z,15.6
2023-06-08T04:31:30.197Z,15.5
2023-06-08T04:41:30.126Z,15.7
2023-06-08T04:51:30.117Z,15.7
2023-06-08T05:01:30.157Z,15.9
2023-06-08T05:11:30.106Z,16
2023-06-08T05:21:30.052Z,16.1
2023-06-08T05:31:30.084Z,16.4
2023-06-08T05:41:30.046Z,16.7
2023-06-08T05:51:30.033Z,17
2023-06-08T06:01:29.976Z,17.4
2023-06-08T06:11:30.009Z,17.8
2023-06-08T06:21:29.977Z,18
2023-06-08T06:31:29.975Z,18.2
2023-06-08T06:41:29.914Z,18.3
2023-06-08T06:51:29.900Z,18.5
2023-06-08T07:01:29.892Z,18.8
2023-06-08T07:11:29.870Z,19.2
2023-06-08T07:21:35.018Z,19.5
2023-06-08T07:31:29.865Z,19.8
2023-06-08T07:41:29.819Z,20
2023-06-08T07:51:29.785Z,20.3
2023-06-08T08:01:29.711Z,20.5
2023-06-08T08:11:29.749Z,20.7
2023-06-08T08:21:29.679Z,21.1
2023-06-08T08:31:29.745Z,21.4
2023-06-08T08:41:29.677Z,21.8
2023-06-08T08:51:29.691Z,22.2
2023-06-08T09:01:29.642Z,23.3
2023-06-08T09:11:29.598Z,25.2
2023-06-08T09:21:29.606Z,27.6
2023-06-08T09:31:29.678Z,29.4
2023-06-08T09:41:29.529Z,30.5
2023-06-08T09:51:29.489Z,32.1
2023-06-08T10:01:29.534Z,32.9
2023-06-08T10:11:29.468Z,34.2
2023-06-08T10:21:29.441Z,34
2023-06-08T10:31:29.435Z,34.1
2023-06-08T10:41:31.760Z,33.9
2023-06-08T10:51:29.370Z,33.2
2023-06-08T11:01:29.393Z,32.6
2023-06-08T11:11:29.328Z,32.4
2023-06-08T11:21:29.319Z,32.3
2023-06-08T11:31:29.331Z,33.5
2023-06-08T11:41:29.269Z,34.7
2023-06-08T11:51:29.248Z,35.7
2023-06-08T12:01:29.213Z,36.2
2023-06-08T12:11:31.158Z,36.1
2023-06-08T12:21:29.185Z,37.5
2023-06-08T12:31:29.293Z,38.1
2023-06-08T12:41:29.147Z,38
2023-06-08T12:51:29.132Z,38
2023-06-08T13:01:29.195Z,38.2
2023-06-08T13:11:29.110Z,37.6
2023-06-08T13:21:29.049Z,38.2
2023-06-08T13:31:29.137Z,39.2
2023-06-08T13:41:29.016Z,39.3
2023-06-08T13:51:29.021Z,38.1
2023-06-08T14:01:29.100Z,35.6
2023-06-08T14:11:28.950Z,33.4
2023-06-08T14:21:28.937Z,33.2
2023-06-08T14:31:28.965Z,34.5
2023-06-08T14:41:28.903Z,35
2023-06-08T14:51:38.075Z,34.3
2023-06-08T15:01:28.907Z,34.1
2023-06-08T15:11:28.880Z,33.7
2023-06-08T15:21:28.835Z,33.2
2023-06-08T15:31:28.953Z,33.6
2023-06-08T15:41:28.812Z,33.3
2023-06-08T15:51:28.750Z,32.8
2023-06-08T16:01:28.763Z,32.8
2023-06-08T16:11:28.708Z,32.3
2023-06-08T16:21:28.690Z,32
2023-06-08T16:31:28.680Z,31.8
2023-06-08T16:41:28.702Z,31.8
2023-06-08T16:51:28.594Z,31.5
2023-06-08T17:01:28.639Z,31.2
2023-06-08T17:11:28.596Z,30.8
2023-06-08T17:21:28.551Z,30.4
2023-06-08T17:31:28.634Z,29.8
2023-06-08T17:41:28.575Z,29.4
2023-06-08T17:51:28.477Z,29.4
2023-06-08T18:01:28.517Z,29.1
2023-06-08T18:11:28.437Z,28.6
2023-06-08T18:21:28.463Z,28.2
2023-06-08T18:31:28.401Z,27.8
2023-06-08T18:41:28.364Z,27.3
2023-06-08T18:51:28.383Z,26.9
2023-06-08T19:01:28.409Z,26.4
2023-06-08T19:11:28.326Z,26
2023-06-08T19:21:28.275Z,25.5
2023-06-08T19:31:28.280Z,25
2023-06-08T19:41:28.308Z,24.7
2023-06-08T19:51:28.208Z,24.4
2023-06-08T20:01:28.220Z,24.2
2023-06-08T20:11:28.169Z,24
2023-06-08T20:21:28.157Z,24
2023-06-08T20:31:28.240Z,24
2023-06-08T20:41:28.109Z,23.6
2023-06-08T20:51:28.090Z,23.5
2023-06-08T21:01:28.115Z,23.4
2023-06-08T21:11:28.057Z,23.2
2023-06-08T21:21:28.026Z,23
2023-06-08T21:31:27.983Z,22.8
2023-06-08T21:41:27.948Z,22.5
2023-06-08T21:51:27.955Z,22.1
2023-06-08T22:01:28.143Z,21.9
2023-06-08T22:11:27.895Z,22
2023-06-08T22:21:27.868Z,21.9
2023-06-08T22:31:27.957Z,21.7
2023-06-08T22:41:27.870Z,21.4
2023-06-08T22:51:27.810Z,21.3
2023-06-08T23:01:27.840Z,21
2023-06-08T23:11:27.758Z,20.9
2023-06-08T23:21:27.734Z,20.6
2023-06-08T23:31:27.860Z,20.4
2023-06-08T23:41:27.715Z,20.3
2023-06-08T23:51:27.715Z,20.2
